Time;durP1;ratioP1;P1;durP2;ratioP2;P2;SDS_P1;SDS_P2;PMS_P1;PMS_P2;Temp;Humidity;BMP_temperature;BMP_pressure;BME280_temperature;BME280_humidity;BME280_pressure;Samples;Min_cycle;Max_cycle;Signal;HPM_P1;HPM_P2
2022/12/27 00:00:15;;;;;;;0.80;0.80;;;16.40;56.60;;;;;;5070830;28;46675;-77
2022/12/27 00:02:42;;;;;;;1.15;0.70;;;16.40;56.60;;;;;;5070072;28;45353;-77
2022/12/27 00:05:09;;;;;;;0.73;0.65;;;16.40;56.50;;;;;;5069387;28;45385;-77
2022/12/27 00:07:37;;;;;;;0.63;0.63;;;16.40;56.50;;;;;;5069614;28;45437;-77
2022/12/27 00:10:04;;;;;;;1.25;0.60;;;16.40;56.50;;;;;;5069924;28;46342;-77
2022/12/27 00:12:31;;;;;;;1.25;0.80;;;16.40;56.50;;;;;;5069036;27;45248;-77
2022/12/27 00:14:59;;;;;;;0.88;0.75;;;16.30;56.50;;;;;;5069417;28;45305;-76
2022/12/27 00:17:26;;;;;;;1.00;0.70;;;16.30;56.50;;;;;;5073696;28;44609;-76
2022/12/27 00:19:53;;;;;;;0.60;0.60;;;16.30;56.40;;;;;;5072414;28;45826;-77
2022/12/27 00:22:19;;;;;;;1.52;0.80;;;16.30;56.40;;;;;;5072428;28;45295;-76
2022/12/27 00:24:47;;;;;;;1.02;0.70;;;16.30;56.40;;;;;;5073614;28;45291;-76
2022/12/27 00:27:14;;;;;;;0.80;0.80;;;16.30;56.40;;;;;;5074832;28;45441;-77
2022/12/27 00:29:40;;;;;;;0.57;0.57;;;16.30;56.40;;;;;;5071188;27;45506;-77
2022/12/27 00:32:09;;;;;;;0.60;0.60;;;16.30;56.40;;;;;;5072324;28;45254;-76
2022/12/27 00:34:36;;;;;;;0.55;0.55;;;16.30;56.40;;;;;;5073856;28;45304;-76
2022/12/27 00:37:02;;;;;;;0.70;0.65;;;16.20;56.30;;;;;;5072406;28;45208;-77
2022/12/27 00:39:29;;;;;;;1.42;0.70;;;16.20;56.30;;;;;;5069620;28;46650;-77
2022/12/27 00:41:57;;;;;;;0.70;0.70;;;16.20;56.30;;;;;;5068172;27;45188;-76
2022/12/27 00:44:24;;;;;;;0.93;0.63;;;16.30;56.30;;;;;;5069651;27;45178;-77
2022/12/27 00:46:51;;;;;;;0.60;0.60;;;16.30;56.20;;;;;;5069700;28;45436;-77
2022/12/27 00:49:19;;;;;;;1.15;0.80;;;16.30;56.00;;;;;;5069305;28;45325;-77
2022/12/27 00:51:46;;;;;;;0.68;0.63;;;16.30;55.80;;;;;;5068861;28;45214;-77
2022/12/27 00:54:13;;;;;;;1.30;0.80;;;16.30;55.70;;;;;;5068405;28;45178;-77
2022/12/27 00:56:39;;;;;;;1.17;0.82;;;16.40;55.60;;;;;;5068690;28;45210;-77
2022/12/27 00:59:07;;;;;;;1.05;0.75;;;16.40;55.50;;;;;;5068268;27;45410;-77
2022/12/27 01:01:34;;;;;;;1.38;0.57;;;16.40;55.40;;;;;;5067822;28;45353;-77
2022/12/27 01:04:01;;;;;;;0.68;0.68;;;16.40;55.40;;;;;;5067927;28;45205;-77
2022/12/27 01:06:31;;;;;;;0.60;0.60;;;16.40;55.30;;;;;;5068454;28;45398;-77
2022/12/27 01:08:58;;;;;;;0.73;0.73;;;16.40;55.30;;;;;;5067909;28;47549;-77
2022/12/27 01:11:25;;;;;;;0.65;0.65;;;16.40;55.30;;;;;;5068086;28;45293;-77
2022/12/27 01:13:54;;;;;;;1.17;0.80;;;16.30;55.30;;;;;;5068231;28;45122;-77
2022/12/27 01:16:22;;;;;;;0.60;0.60;;;16.30;55.30;;;;;;5067164;27;45124;-77
2022/12/27 01:18:49;;;;;;;0.70;0.70;;;16.30;55.30;;;;;;5066436;27;45452;-77
2022/12/27 01:21:18;;;;;;;0.93;0.73;;;16.30;55.30;;;;;;5066580;28;45369;-77
2022/12/27 01:23:46;;;;;;;0.77;0.70;;;16.30;55.30;;;;;;5066353;28;45242;-77
2022/12/27 01:26:15;;;;;;;1.55;0.73;;;16.20;55.30;;;;;;5065016;28;46155;-77
2022/12/27 01:28:41;;;;;;;0.90;0.65;;;16.20;55.30;;;;;;5065671;27;45500;-78
2022/12/27 01:31:12;;;;;;;0.90;0.90;;;16.20;55.30;;;;;;5065659;28;45262;-77
2022/12/27 01:33:39;;;;;;;0.68;0.68;;;16.20;55.30;;;;;;5065562;28;45325;-77
2022/12/27 01:36:12;;;;;;;0.82;0.70;;;16.20;55.30;;;;;;5065359;28;45462;-77
2022/12/27 01:38:41;;;;;;;0.93;0.75;;;16.20;55.20;;;;;;5064974;27;45297;-77
2022/12/27 01:43:58;;;;;;;1.17;0.60;;;16.10;55.20;;;;;;5065510;28;45341;-77
2022/12/27 01:46:25;;;;;;;0.60;0.60;;;16.10;55.20;;;;;;5064862;28;45244;-77
2022/12/27 01:48:52;;;;;;;0.70;0.70;;;16.10;55.30;;;;;;5064421;28;46657;-77
2022/12/27 01:51:18;;;;;;;0.80;0.60;;;16.10;55.30;;;;;;5064426;28;45188;-77
2022/12/27 01:53:50;;;;;;;1.55;0.60;;;16.00;55.20;;;;;;5065110;28;45419;-78
2022/12/27 01:56:20;;;;;;;1.60;0.55;;;16.00;55.20;;;;;;5064923;28;45174;-77
2022/12/27 01:58:48;;;;;;;0.50;0.50;;;16.00;55.10;;;;;;5064577;27;45366;-77
2022/12/27 02:01:22;;;;;;;0.65;0.60;;;16.10;55.00;;;;;;5065023;27;45305;-78
2022/12/27 02:03:51;;;;;;;0.50;0.50;;;16.10;54.90;;;;;;5064889;28;45319;-77
2022/12/27 02:06:18;;;;;;;1.98;0.75;;;16.10;54.80;;;;;;5064869;28;45193;-77
2022/12/27 02:08:49;;;;;;;1.23;0.88;;;16.10;54.70;;;;;;5064289;28;46662;-77
2022/12/27 02:11:15;;;;;;;1.27;0.70;;;16.10;54.60;;;;;;5063963;28;45280;-77
2022/12/27 02:13:45;;;;;;;0.70;0.70;;;16.20;54.50;;;;;;5063853;28;45290;-77
2022/12/27 02:16:13;;;;;;;1.60;0.68;;;16.20;54.40;;;;;;5063851;27;45381;-77
2022/12/27 02:18:39;;;;;;;0.55;0.55;;;16.20;54.20;;;;;;5063917;27;45350;-77
2022/12/27 02:21:26;;;;;;;0.70;0.70;;;16.20;54.10;;;;;;5063820;28;45248;-78
2022/12/27 02:24:16;;;;;;;1.02;0.70;;;16.30;54.00;;;;;;5063684;28;45177;-78
2022/12/27 02:26:49;;;;;;;0.80;0.68;;;16.30;53.90;;;;;;5063292;28;45463;-77
2022/12/27 02:29:41;;;;;;;1.08;0.60;;;16.30;53.80;;;;;;5066563;28;46739;-78
2022/12/27 02:32:08;;;;;;;1.55;0.50;;;16.30;53.80;;;;;;5066310;28;45113;-76
2022/12/27 02:34:40;;;;;;;0.93;0.63;;;16.30;53.80;;;;;;5066391;28;45196;-77
2022/12/27 02:37:10;;;;;;;1.15;0.73;;;16.30;53.80;;;;;;5066743;28;45322;-75
2022/12/27 02:39:38;;;;;;;0.82;0.70;;;16.30;53.80;;;;;;5066592;28;46655;-76
2022/12/27 02:53:10;;;;;;;0.50;0.50;;;16.10;53.90;;;;;;5063538;28;45305;-77
2022/12/27 02:58:48;;;;;;;1.00;0.50;;;16.10;53.90;;;;;;5066762;28;45240;-78
2022/12/27 03:04:13;;;;;;;0.73;0.70;;;16.10;54.00;;;;;;5066719;28;45340;-77
2022/12/27 03:07:09;;;;;;;0.47;0.47;;;16.00;54.00;;;;;;5066264;28;45288;-76
2022/12/27 03:18:20;;;;;;;1.52;0.65;;;16.00;54.20;;;;;;5063197;28;45317;-77
2022/12/27 03:26:15;;;;;;;1.13;0.70;;;15.90;54.20;;;;;;5063192;28;45405;-77
2022/12/27 03:34:37;;;;;;;1.08;0.57;;;15.90;54.10;;;;;;5063168;28;45415;-77
2022/12/27 03:39:52;;;;;;;0.88;0.60;;;16.00;53.90;;;;;;5066264;28;45355;-77
2022/12/27 03:45:06;;;;;;;1.80;0.80;;;16.00;53.70;;;;;;5066040;28;45954;-77
2022/12/27 03:47:35;;;;;;;0.52;0.52;;;16.00;53.60;;;;;;5065369;28;45337;-77
2022/12/27 03:50:06;;;;;;;0.55;0.52;;;16.00;53.50;;;;;;5065621;28;45338;-77
2022/12/27 03:52:34;;;;;;;0.60;0.60;;;16.10;53.50;;;;;;5065851;28;45344;-77
2022/12/27 03:55:01;;;;;;;0.80;0.80;;;16.10;53.30;;;;;;5065298;28;47338;-77
2022/12/27 03:57:29;;;;;;;1.27;0.65;;;16.10;53.30;;;;;;5065437;28;45199;-77
2022/12/27 03:59:56;;;;;;;0.50;0.50;;;16.10;53.20;;;;;;5065610;28;45261;-76
2022/12/27 04:02:23;;;;;;;0.70;0.70;;;16.10;53.10;;;;;;5065204;28;45499;-77
2022/12/27 04:04:50;;;;;;;1.83;0.85;;;16.10;53.10;;;;;;5064594;28;45365;-77
2022/12/27 04:07:18;;;;;;;1.17;0.65;;;16.10;53.10;;;;;;5064839;28;45363;-77
2022/12/27 04:34:45;;;;;;;0.68;0.60;;;15.90;53.30;;;;;;5065973;28;45330;-76
2022/12/27 04:37:12;;;;;;;0.82;0.50;;;15.80;53.30;;;;;;5064974;27;46248;-78
2022/12/27 04:54:55;;;;;;;0.60;0.60;;;15.80;53.30;;;;;;5064650;28;45275;-76
2022/12/27 04:56:30;;;;;;;1.75;0.57;;;15.80;53.10;;;;;;5022751;28;45402;-77
2022/12/27 05:04:22;;;;;;;0.60;0.60;;;15.90;52.90;;;;;;5062029;28;45344;-77
2022/12/27 05:06:48;;;;;;;0.73;0.70;;;16.00;52.80;;;;;;5064942;28;45448;-77
2022/12/27 05:14:53;;;;;;;1.25;0.50;;;16.00;52.60;;;;;;5064187;28;45395;-77
2022/12/27 05:17:22;;;;;;;0.55;0.50;;;15.90;52.50;;;;;;5064762;28;45456;-77
2022/12/27 05:19:49;;;;;;;0.35;0.35;;;16.00;52.60;;;;;;5064392;28;45650;-76
2022/12/27 05:27:45;;;;;;;0.50;0.50;;;15.90;52.60;;;;;;5064283;28;45263;-77
2022/12/27 05:30:13;;;;;;;0.43;0.43;;;15.90;52.60;;;;;;5064610;28;45586;-77
2022/12/27 05:32:40;;;;;;;0.60;0.60;;;15.90;52.70;;;;;;5063956;27;45208;-77
2022/12/27 05:35:09;;;;;;;0.50;0.50;;;15.90;52.70;;;;;;5064433;28;45234;-77
2022/12/27 05:37:36;;;;;;;0.98;0.50;;;15.90;52.70;;;;;;5064505;28;45336;-77
2022/12/27 05:40:04;;;;;;;0.55;0.32;;;15.80;52.70;;;;;;5064126;28;46660;-77
2022/12/27 05:42:33;;;;;;;0.60;0.55;;;15.80;52.80;;;;;;5063684;27;45194;-78
2022/12/27 05:45:01;;;;;;;1.13;0.60;;;15.80;52.80;;;;;;5064390;28;45528;-77
2022/12/27 05:47:28;;;;;;;0.70;0.50;;;15.80;52.90;;;;;;5064708;28;45607;-78
2022/12/27 05:49:55;;;;;;;0.40;0.40;;;15.80;52.90;;;;;;5064255;28;46341;-78
2022/12/27 05:52:22;;;;;;;0.60;0.50;;;15.80;52.90;;;;;;5063879;28;45243;-78
2022/12/27 05:54:49;;;;;;;1.08;0.55;;;15.70;52.90;;;;;;5064345;28;45225;-78
2022/12/27 05:57:17;;;;;;;0.60;0.57;;;15.70;53.00;;;;;;5064386;28;45370;-78
2022/12/27 05:59:45;;;;;;;1.45;0.60;;;15.70;53.00;;;;;;5064084;28;45755;-78
2022/12/27 06:02:13;;;;;;;0.60;0.60;;;15.70;53.00;;;;;;5062313;28;45256;-78
2022/12/27 06:04:40;;;;;;;0.60;0.60;;;15.70;53.00;;;;;;5064703;28;45474;-78
2022/12/27 06:07:07;;;;;;;0.77;0.60;;;15.70;52.90;;;;;;5064405;28;45298;-78
2022/12/27 06:09:34;;;;;;;0.85;0.60;;;15.70;52.80;;;;;;5063166;28;45345;-79
2022/12/27 06:12:00;;;;;;;0.60;0.60;;;15.80;52.80;;;;;;5064005;28;45403;-78
2022/12/27 06:14:27;;;;;;;0.57;0.45;;;15.80;52.70;;;;;;5064677;28;45261;-78
2022/12/27 06:16:54;;;;;;;0.50;0.50;;;15.80;52.60;;;;;;5064457;28;45184;-78
2022/12/27 06:19:22;;;;;;;1.17;0.60;;;15.80;52.50;;;;;;5063987;28;45522;-78
2022/12/27 06:21:49;;;;;;;0.50;0.47;;;15.90;52.50;;;;;;5064025;28;45361;-79
2022/12/27 06:24:18;;;;;;;0.77;0.60;;;15.90;52.40;;;;;;5064113;28;45125;-78
2022/12/27 06:26:45;;;;;;;0.98;0.60;;;15.90;52.30;;;;;;5063970;28;45303;-78
2022/12/27 06:29:12;;;;;;;0.73;0.45;;;15.90;52.30;;;;;;5063970;28;46656;-78
2022/12/27 06:31:39;;;;;;;0.73;0.65;;;15.90;52.70;;;;;;5063876;28;45407;-77
2022/12/27 06:34:06;;;;;;;1.10;0.60;;;16.00;52.10;;;;;;5064446;28;45263;-77
2022/12/27 06:36:34;;;;;;;0.93;0.70;;;16.00;52.10;;;;;;5064233;28;45193;-77
2022/12/27 06:39:01;;;;;;;1.00;0.50;;;16.00;52.10;;;;;;5063496;27;47097;-79
2022/12/27 06:41:28;;;;;;;0.80;0.80;;;16.00;52.10;;;;;;5064193;27;45290;-77
2022/12/27 06:43:58;;;;;;;0.40;0.40;;;15.90;52.10;;;;;;5063549;28;45396;-77
2022/12/27 06:46:25;;;;;;;1.88;0.73;;;15.90;52.10;;;;;;5063715;28;45622;-77
2022/12/27 06:48:52;;;;;;;0.60;0.60;;;15.90;52.10;;;;;;5063273;28;46634;-76
2022/12/27 06:51:19;;;;;;;2.83;0.50;;;15.90;52.20;;;;;;5063438;28;45248;-76
2022/12/27 06:53:47;;;;;;;0.60;0.60;;;15.90;52.20;;;;;;5062362;28;45349;-79
2022/12/27 06:56:16;;;;;;;0.50;0.50;;;15.90;52.20;;;;;;5063307;27;45339;-76
2022/12/27 06:58:42;;;;;;;1.35;0.70;;;15.80;52.20;;;;;;5062809;28;46929;-76
2022/12/27 07:01:09;;;;;;;1.40;0.65;;;15.80;52.20;;;;;;5062863;27;45239;-76
2022/12/27 07:03:36;;;;;;;0.50;0.50;;;15.80;52.30;;;;;;5062916;28;45248;-76
2022/12/27 07:06:03;;;;;;;1.50;0.60;;;15.80;52.40;;;;;;5063115;28;45267;-77
2022/12/27 07:08:30;;;;;;;0.47;0.47;;;15.80;52.40;;;;;;5062677;28;47560;-76
2022/12/27 07:11:01;;;;;;;0.82;0.60;;;15.70;52.40;;;;;;5062655;28;45327;-76
2022/12/27 07:13:27;;;;;;;0.98;0.70;;;15.70;52.40;;;;;;5063602;28;45315;-76
2022/12/27 07:15:54;;;;;;;0.50;0.40;;;15.70;52.50;;;;;;5066391;28;45225;-76
2022/12/27 07:18:21;;;;;;;0.75;0.60;;;15.70;52.50;;;;;;5065908;28;45484;-76
2022/12/27 07:20:48;;;;;;;0.60;0.60;;;15.70;52.50;;;;;;5065773;28;45220;-76
2022/12/27 07:23:15;;;;;;;0.52;0.52;;;15.70;52.50;;;;;;5066730;28;45315;-76
2022/12/27 07:25:41;;;;;;;0.50;0.50;;;15.70;52.40;;;;;;5068595;28;45174;-76
2022/12/27 07:28:10;;;;;;;0.68;0.68;;;15.70;52.40;;;;;;5066843;28;46675;-76
2022/12/27 07:30:39;;;;;;;1.48;0.77;;;15.70;52.30;;;;;;5068606;28;45276;-76
2022/12/27 07:33:06;;;;;;;0.50;0.50;;;15.70;52.30;;;;;;5069093;28;45310;-76
2022/12/27 07:35:33;;;;;;;2.80;0.73;;;15.80;52.20;;;;;;5069378;28;45481;-76
2022/12/27 07:37:59;;;;;;;1.10;0.70;;;15.80;52.10;;;;;;5070407;28;46364;-76
2022/12/27 07:40:26;;;;;;;1.02;0.60;;;15.80;52.10;;;;;;5071044;27;45329;-76
2022/12/27 07:42:53;;;;;;;0.80;0.52;;;15.80;52.00;;;;;;5070468;28;45244;-76
2022/12/27 07:45:21;;;;;;;0.60;0.60;;;15.80;52.00;;;;;;5069464;28;45501;-78
2022/12/27 07:47:48;;;;;;;1.45;0.60;;;15.80;52.00;;;;;;5068740;28;45258;-76
2022/12/27 07:50:15;;;;;;;1.52;0.80;;;15.80;51.90;;;;;;5067744;28;45191;-76
2022/12/27 07:52:42;;;;;;;2.42;0.77;;;15.90;51.90;;;;;;5067676;28;45369;-76
2022/12/27 07:55:09;;;;;;;0.88;0.80;;;15.90;51.80;;;;;;5068469;28;45395;-76
2022/12/27 07:57:36;;;;;;;0.60;0.60;;;15.90;51.80;;;;;;5070982;28;45455;-76
2022/12/27 08:00:03;;;;;;;1.60;0.82;;;15.90;51.80;;;;;;5070248;28;45141;-79
2022/12/27 08:02:31;;;;;;;0.85;0.70;;;15.90;51.80;;;;;;5068871;28;45348;-76
2022/12/27 08:04:58;;;;;;;1.85;0.68;;;15.90;52.40;;;;;;5070246;28;45376;-76
2022/12/27 08:07:25;;;;;;;0.57;0.57;;;15.90;51.80;;;;;;5067336;27;46612;-77
2022/12/27 08:09:52;;;;;;;1.83;0.75;;;15.80;51.90;;;;;;5068206;28;45233;-78
2022/12/27 08:12:19;;;;;;;2.17;0.80;;;15.80;51.90;;;;;;5070868;28;45264;-78
2022/12/27 08:14:45;;;;;;;0.77;0.77;;;15.80;51.90;;;;;;5072284;28;45228;-79
2022/12/27 08:17:14;;;;;;;0.70;0.63;;;15.80;52.00;;;;;;5070506;28;46657;-78
2022/12/27 08:19:43;;;;;;;0.77;0.60;;;15.80;52.00;;;;;;5068426;28;45232;-79
2022/12/27 08:22:10;;;;;;;0.60;0.60;;;15.80;52.10;;;;;;5069104;28;45386;-79
2022/12/27 08:24:37;;;;;;;0.95;0.73;;;15.70;52.10;;;;;;5070773;28;45481;-79
2022/12/27 08:27:04;;;;;;;0.80;0.80;;;15.70;52.10;;;;;;5069410;28;45711;-79
2022/12/27 08:29:30;;;;;;;1.08;0.70;;;15.70;52.20;;;;;;5069032;28;44798;-78
2022/12/27 08:31:57;;;;;;;2.40;0.90;;;15.70;52.20;;;;;;5069320;28;45289;-79
2022/12/27 08:34:24;;;;;;;1.00;0.80;;;15.70;52.20;;;;;;5068171;28;45296;-79
2022/12/27 08:36:52;;;;;;;0.80;0.80;;;15.70;52.30;;;;;;5067704;28;47304;-78
2022/12/27 08:39:19;;;;;;;0.50;0.50;;;15.70;52.30;;;;;;5066161;28;45434;-77
2022/12/27 08:41:46;;;;;;;0.80;0.80;;;15.70;52.20;;;;;;5069149;27;45282;-75
2022/12/27 08:44:13;;;;;;;1.10;0.88;;;15.70;52.20;;;;;;5068823;28;45154;-79
2022/12/27 08:46:40;;;;;;;1.65;0.68;;;15.70;52.10;;;;;;5067874;28;45350;-79
2022/12/27 08:49:07;;;;;;;0.70;0.63;;;15.80;52.10;;;;;;5067656;28;45276;-78
2022/12/27 08:51:34;;;;;;;0.80;0.60;;;15.80;52.00;;;;;;5066688;28;45252;-78
2022/12/27 08:54:02;;;;;;;2.45;0.80;;;15.80;52.00;;;;;;5067442;28;45430;-78
2022/12/27 08:56:29;;;;;;;0.85;0.70;;;15.80;51.90;;;;;;5066695;27;46391;-77
2022/12/27 08:58:56;;;;;;;1.40;0.73;;;15.90;51.90;;;;;;5066340;27;45178;-76
2022/12/27 09:01:24;;;;;;;0.80;0.80;;;15.90;51.90;;;;;;5066168;28;45461;-76
2022/12/27 09:03:51;;;;;;;0.70;0.70;;;15.90;51.80;;;;;;5067323;28;45293;-77
2022/12/27 09:06:20;;;;;;;0.68;0.60;;;15.90;51.80;;;;;;5066324;28;47607;-77
2022/12/27 09:08:47;;;;;;;1.70;0.70;;;15.90;51.80;;;;;;5066521;27;45181;-77
2022/12/27 09:11:16;;;;;;;1.42;0.60;;;15.90;51.80;;;;;;5066542;27;45390;-77
2022/12/27 09:13:43;;;;;;;0.90;0.90;;;15.90;51.80;;;;;;5066519;28;45457;-76
2022/12/27 09:16:12;;;;;;;1.83;0.68;;;15.90;51.80;;;;;;5065790;28;45477;-76
2022/12/27 09:18:38;;;;;;;1.55;0.77;;;15.90;51.90;;;;;;5066010;28;45424;-76
2022/12/27 09:21:06;;;;;;;0.75;0.70;;;15.90;51.90;;;;;;5065850;27;45400;-76
2022/12/27 09:23:33;;;;;;;1.70;1.05;;;15.90;52.00;;;;;;5065510;28;45442;-76
2022/12/27 09:26:04;;;;;;;2.50;0.88;;;15.90;52.00;;;;;;5066311;27;45509;-76
2022/12/27 09:28:32;;;;;;;2.28;0.88;;;15.90;52.10;;;;;;5065882;27;45274;-77
2022/12/27 09:30:59;;;;;;;2.90;1.00;;;15.90;52.10;;;;;;5065329;28;45246;-76
2022/12/27 09:33:26;;;;;;;2.42;0.80;;;15.90;52.20;;;;;;5065310;28;45495;-77
2022/12/27 09:35:53;;;;;;;1.45;1.02;;;15.90;52.80;;;;;;5065576;28;46360;-77
2022/12/27 09:38:20;;;;;;;0.88;0.75;;;15.80;52.20;;;;;;5066290;28;45240;-77
2022/12/27 09:40:52;;;;;;;3.53;0.90;;;15.80;52.20;;;;;;5066067;28;45312;-76
2022/12/27 09:43:19;;;;;;;1.42;0.80;;;15.80;52.30;;;;;;5066739;28;45336;-76
2022/12/27 09:45:48;;;;;;;3.13;1.00;;;15.80;52.30;;;;;;5065701;28;46419;-77
2022/12/27 09:48:15;;;;;;;1.95;0.80;;;15.80;52.40;;;;;;5119078;27;45340;-77
2022/12/27 09:50:46;;;;;;;4.95;1.85;;;15.80;52.40;;;;;;5073743;27;45191;-77
2022/12/27 09:53:16;;;;;;;4.40;1.00;;;15.80;52.50;;;;;;5097709;27;45458;-76
2022/12/27 09:55:44;;;;;;;3.78;1.38;;;15.80;52.50;;;;;;5070844;27;48177;-77
2022/12/27 09:58:20;;;;;;;3.10;1.00;;;15.80;52.50;;;;;;5154023;27;45362;-77
2022/12/27 10:00:51;;;;;;;2.63;0.80;;;15.80;52.50;;;;;;5124361;27;44747;-76
2022/12/27 10:03:18;;;;;;;1.77;1.15;;;15.80;52.40;;;;;;5118204;27;45417;-77
2022/12/27 10:05:45;;;;;;;1.05;0.95;;;15.90;52.40;;;;;;5112654;27;46642;-77
2022/12/27 10:08:29;;;;;;;3.47;0.88;;;15.90;52.30;;;;;;5170603;27;45300;-77
2022/12/27 10:11:00;;;;;;;1.10;1.00;;;15.90;52.20;;;;;;5082654;28;45265;-76
2022/12/27 10:13:33;;;;;;;1.80;0.82;;;16.00;52.20;;;;;;5158244;27;44782;-76
2022/12/27 10:16:14;;;;;;;1.02;0.80;;;16.00;52.10;;;;;;5089163;27;45419;-78
2022/12/27 10:18:47;;;;;;;0.80;0.80;;;16.10;52.10;;;;;;5125144;27;45398;-76
2022/12/27 10:21:19;;;;;;;1.90;1.00;;;16.10;52.00;;;;;;5121132;27;45390;-77
2022/12/27 10:23:49;;;;;;;2.30;1.08;;;16.20;51.90;;;;;;5084496;27;45565;-76
2022/12/27 10:26:17;;;;;;;1.58;0.90;;;16.20;51.80;;;;;;5079877;27;46816;-77
2022/12/27 10:28:44;;;;;;;4.43;1.38;;;16.20;51.70;;;;;;5080569;27;45214;-76
2022/12/27 10:31:17;;;;;;;3.33;1.00;;;16.20;51.70;;;;;;5081712;28;45245;-76
2022/12/27 10:33:44;;;;;;;2.25;0.80;;;16.30;51.80;;;;;;5078594;27;45566;-77
2022/12/27 10:36:18;;;;;;;3.22;1.00;;;16.30;52.30;;;;;;5079535;28;46348;-77
2022/12/27 10:38:48;;;;;;;1.60;1.08;;;16.30;51.70;;;;;;5077406;28;45139;-76
2022/12/27 10:41:25;;;;;;;0.75;0.73;;;16.30;51.60;;;;;;5074004;28;45252;-75
2022/12/27 10:43:53;;;;;;;1.92;1.02;;;16.40;51.60;;;;;;5073097;27;45607;-75
2022/12/27 10:46:25;;;;;;;1.42;0.93;;;16.40;51.60;;;;;;5078083;28;45209;-77
2022/12/27 10:48:54;;;;;;;1.67;0.90;;;16.40;51.50;;;;;;5081766;28;45318;-76
2022/12/27 10:51:22;;;;;;;1.40;0.70;;;16.40;51.50;;;;;;5082083;27;45131;-76
2022/12/27 10:54:02;;;;;;;1.10;0.80;;;16.50;51.50;;;;;;5076409;28;45483;-75
2022/12/27 10:56:30;;;;;;;1.38;1.00;;;16.50;51.40;;;;;;5080759;28;45241;-76
2022/12/27 10:59:07;;;;;;;2.40;0.98;;;16.50;51.40;;;;;;5080188;27;45245;-76
2022/12/27 11:01:35;;;;;;;1.90;0.88;;;16.50;51.40;;;;;;5077882;28;45244;-77
2022/12/27 11:04:13;;;;;;;2.47;1.10;;;16.60;51.40;;;;;;5077937;28;45335;-75
2022/12/27 11:06:40;;;;;;;2.28;0.82;;;16.60;51.50;;;;;;5082092;28;46644;-76
2022/12/27 11:09:27;;;;;;;2.83;1.00;;;16.60;51.50;;;;;;5081349;28;45231;-76
2022/12/27 11:12:28;;;;;;;5.93;0.93;;;16.60;51.50;;;;;;5082515;28;45395;-76
2022/12/27 11:14:56;;;;;;;2.15;0.90;;;16.60;51.50;;;;;;5076435;27;45569;-76
2022/12/27 11:17:26;;;;;;;1.30;0.90;;;16.60;51.50;;;;;;5082102;28;45232;-76
2022/12/27 11:19:53;;;;;;;2.92;1.00;;;16.60;51.40;;;;;;5082351;28;45236;-76
2022/12/27 11:22:20;;;;;;;1.88;1.00;;;16.60;51.40;;;;;;5081715;28;45250;-75
2022/12/27 11:24:50;;;;;;;1.08;0.98;;;16.70;51.40;;;;;;5083474;27;45250;-76
2022/12/27 11:27:22;;;;;;;2.03;0.90;;;16.70;51.30;;;;;;5082309;28;46398;-76
2022/12/27 11:29:50;;;;;;;1.23;0.85;;;16.80;51.30;;;;;;5080006;28;45298;-76
2022/12/27 11:32:17;;;;;;;1.20;0.98;;;16.80;51.20;;;;;;5078095;28;45415;-77
2022/12/27 11:34:45;;;;;;;1.52;0.80;;;16.90;51.20;;;;;;5077929;28;45282;-77
2022/12/27 11:37:14;;;;;;;1.33;1.20;;;16.90;51.10;;;;;;5075513;27;46631;-77
2022/12/27 11:39:42;;;;;;;1.08;0.98;;;16.90;51.10;;;;;;5075302;27;45296;-77
2022/12/27 11:42:14;;;;;;;4.18;0.82;;;17.00;51.00;;;;;;5074164;27;45166;-77
2022/12/27 11:44:43;;;;;;;3.25;1.15;;;17.00;50.90;;;;;;5078319;27;45399;-77
2022/12/27 11:47:12;;;;;;;1.10;1.00;;;17.00;50.80;;;;;;5082933;27;45641;-77
2022/12/27 11:49:42;;;;;;;3.67;0.93;;;17.00;50.80;;;;;;5081947;28;45293;-76
2022/12/27 11:52:38;;;;;;;1.10;0.80;;;17.10;50.80;;;;;;5082153;28;45219;-76
2022/12/27 11:55:39;;;;;;;1.27;0.90;;;17.10;50.80;;;;;;5081575;27;45157;-76
2022/12/27 11:58:35;;;;;;;2.83;1.30;;;17.10;50.80;;;;;;5073267;28;45809;-76
2022/12/27 12:01:12;;;;;;;2.55;1.10;;;17.10;50.80;;;;;;5071973;27;45414;-77
2022/12/27 12:04:09;;;;;;;2.95;1.00;;;17.10;50.70;;;;;;5070891;28;45319;-76
2022/12/27 12:06:43;;;;;;;1.73;0.98;;;17.10;50.80;;;;;;5072279;28;45625;-77
2022/12/27 12:09:33;;;;;;;1.85;0.85;;;17.10;50.80;;;;;;5074159;28;45513;-78
2022/12/27 12:12:28;;;;;;;0.80;0.80;;;17.00;51.00;;;;;;5075307;27;45326;-78
2022/12/27 12:15:06;;;;;;;1.85;1.10;;;16.90;51.20;;;;;;5073979;28;45401;-77
2022/12/27 12:17:50;;;;;;;0.95;0.80;;;16.90;51.40;;;;;;5074450;27;45269;-77
2022/12/27 12:20:25;;;;;;;1.42;1.00;;;16.90;51.40;;;;;;5075237;28;45389;-77
2022/12/27 12:23:02;;;;;;;4.85;1.00;;;17.00;51.30;;;;;;5066597;28;45292;-79
2022/12/27 12:26:02;;;;;;;3.17;0.90;;;17.00;51.20;;;;;;5065867;27;45225;-79
2022/12/27 12:28:51;;;;;;;2.92;0.90;;;17.00;51.30;;;;;;5058517;27;45484;-78
2022/12/27 12:31:26;;;;;;;4.45;1.10;;;16.90;51.50;;;;;;5062752;28;45535;-78
2022/12/27 12:34:09;;;;;;;4.18;1.15;;;16.80;51.60;;;;;;5065050;28;45233;-78
2022/12/27 12:36:49;;;;;;;1.98;0.82;;;16.80;51.80;;;;;;5065183;28;45479;-78
2022/12/27 12:39:20;;;;;;;3.95;1.27;;;16.70;51.90;;;;;;5065751;27;45256;-78
2022/12/27 12:42:07;;;;;;;8.77;1.23;;;16.70;52.10;;;;;;5065719;28;45551;-79
2022/12/27 12:44:52;;;;;;;2.15;0.90;;;16.60;52.10;;;;;;5065227;28;45205;-79
2022/12/27 12:47:28;;;;;;;2.17;1.00;;;16.60;52.20;;;;;;5065653;28;45218;-79
2022/12/27 12:50:04;;;;;;;3.55;1.20;;;16.60;52.30;;;;;;5066487;28;45204;-79
2022/12/27 12:52:44;;;;;;;1.27;0.90;;;16.60;52.40;;;;;;5065024;28;45495;-77
2022/12/27 12:55:21;;;;;;;2.35;0.90;;;16.50;52.40;;;;;;5065031;28;45381;-78
2022/12/27 12:57:56;;;;;;;1.77;1.25;;;16.50;52.50;;;;;;5065588;27;45278;-77
2022/12/27 13:00:35;;;;;;;1.75;0.93;;;16.50;52.50;;;;;;5066132;28;45445;-78
2022/12/27 13:03:32;;;;;;;1.92;0.90;;;16.50;52.50;;;;;;5065176;27;45385;-78
2022/12/27 13:06:04;;;;;;;2.38;1.10;;;16.40;52.50;;;;;;5065786;27;45329;-78
2022/12/27 13:08:32;;;;;;;1.67;0.75;;;16.40;52.50;;;;;;5066248;28;45195;-78
2022/12/27 13:11:21;;;;;;;1.17;0.82;;;16.40;52.60;;;;;;5065478;28;45264;-78
2022/12/27 13:13:59;;;;;;;1.95;0.80;;;16.40;52.60;;;;;;5065704;27;45732;-78
2022/12/27 13:16:30;;;;;;;1.40;0.80;;;16.40;52.60;;;;;;5065694;28;45192;-78
2022/12/27 13:19:06;;;;;;;3.20;1.08;;;16.40;52.70;;;;;;5065916;28;45290;-78
2022/12/27 13:21:45;;;;;;;1.25;0.93;;;16.40;52.70;;;;;;5065794;28;45275;-78
2022/12/27 13:24:15;;;;;;;4.57;0.98;;;16.40;52.70;;;;;;5066300;28;46652;-79
2022/12/27 13:26:46;;;;;;;1.17;0.90;;;16.30;52.70;;;;;;5066892;28;45309;-78
2022/12/27 13:29:40;;;;;;;1.10;0.90;;;16.30;52.70;;;;;;5066706;27;45193;-78
2022/12/27 13:32:12;;;;;;;1.52;0.80;;;16.30;53.40;;;;;;5063535;27;45484;-79
2022/12/27 13:34:44;;;;;;;1.10;0.80;;;16.30;52.80;;;;;;5066021;28;46657;-79
2022/12/27 13:37:18;;;;;;;1.90;0.70;;;16.30;52.80;;;;;;5063034;28;45308;-78
2022/12/27 13:40:22;;;;;;;1.60;0.90;;;16.30;52.90;;;;;;5067089;28;45304;-78
2022/12/27 13:43:05;;;;;;;0.60;0.60;;;16.30;52.90;;;;;;5019179;27;45364;-78
2022/12/27 13:45:45;;;;;;;1.23;0.90;;;16.30;52.90;;;;;;5065240;28;45153;-78
2022/12/27 13:48:20;;;;;;;1.95;0.75;;;16.20;52.90;;;;;;5065563;27;45377;-78
2022/12/27 13:51:07;;;;;;;2.28;0.75;;;16.30;53.00;;;;;;5065981;28;45253;-78
2022/12/27 13:54:02;;;;;;;1.00;0.90;;;16.30;53.10;;;;;;5026157;28;45394;-78
2022/12/27 13:56:32;;;;;;;1.75;0.70;;;16.30;53.00;;;;;;5065432;28;45736;-78
2022/12/27 13:59:06;;;;;;;0.80;0.80;;;16.30;53.00;;;;;;5067834;28;45266;-78
2022/12/27 14:01:54;;;;;;;0.88;0.88;;;16.30;52.90;;;;;;5069347;28;45260;-78
2022/12/27 14:04:41;;;;;;;0.70;0.70;;;16.30;52.80;;;;;;5065576;27;45397;-80
2022/12/27 14:07:26;;;;;;;2.22;1.10;;;16.40;52.80;;;;;;5063937;28;45603;-78
2022/12/27 14:10:04;;;;;;;1.85;0.88;;;16.40;52.60;;;;;;5059500;28;46125;-78
2022/12/27 14:12:53;;;;;;;1.77;0.90;;;16.40;52.50;;;;;;5064302;28;45282;-81
2022/12/27 14:15:22;;;;;;;1.15;0.88;;;16.40;52.50;;;;;;5065980;28;45374;-77
2022/12/27 14:17:54;;;;;;;1.50;0.80;;;16.50;52.50;;;;;;5064450;28;47320;-75
2022/12/27 14:20:33;;;;;;;1.23;0.82;;;16.50;52.60;;;;;;5064508;28;45329;-76
2022/12/27 14:23:13;;;;;;;2.20;0.82;;;16.50;52.60;;;;;;5064854;28;45252;-77
2022/12/27 14:26:06;;;;;;;4.93;1.38;;;16.50;52.70;;;;;;5067300;28;45418;-78
2022/12/27 14:29:07;;;;;;;9.15;1.98;;;16.50;52.70;;;;;;5066925;28;46977;-78
2022/12/27 14:31:56;;;;;;;34.60;7.30;;;16.50;52.70;;;;;;5057837;27;45469;-78
2022/12/27 14:35:11;;;;;;;17.73;3.42;;;16.50;52.90;;;;;;5067705;28;45212;-77
2022/12/27 14:38:18;;;;;;;21.33;3.80;;;16.50;52.90;;;;;;5089184;28;45311;-78
2022/12/27 14:41:03;;;;;;;15.20;3.08;;;16.40;53.00;;;;;;5068210;28;45502;-78
2022/12/27 14:44:03;;;;;;;17.67;3.47;;;16.40;53.10;;;;;;5050271;28;45232;-79
2022/12/27 14:46:54;;;;;;;22.52;3.22;;;16.40;53.10;;;;;;5047454;28;45227;-78
2022/12/27 14:49:43;;;;;;;16.75;3.08;;;16.40;53.10;;;;;;5046791;28;45392;-78